sensor_id;sensor_type;location;lat;lon;timestamp;temperature;humidity
52669;DHT22;59898;52.786;6.892;2023-03-14T00:03:11;11.20;99.90
52669;DHT22;59898;52.786;6.892;2023-03-14T00:06:31;11.30;99.90
52669;DHT22;59898;52.786;6.892;2023-03-14T00:09:52;11.20;99.90
52669;DHT22;59898;52.786;6.892;2023-03-14T00:13:13;11.30;99.90
52669;DHT22;59898;52.786;6.892;2023-03-14T00:16:33;11.30;99.90
52669;DHT22;59898;52.786;6.892;2023-03-14T00:19:54;11.30;99.90
52669;DHT22;59898;52.786;6.892;2023-03-14T00:23:15;11.30;99.90
52669;DHT22;59898;52.786;6.892;2023-03-14T00:26:35;11.30;99.90
52669;DHT22;59898;52.786;6.892;2023-03-14T00:29:56;11.30;99.90
52669;DHT22;59898;52.786;6.892;2023-03-14T00:33:17;11.30;99.90
52669;DHT22;59898;52.786;6.892;2023-03-14T00:36:37;11.30;99.90
52669;DHT22;59898;52.786;6.892;2023-03-14T00:39:58;11.20;99.90
52669;DHT22;59898;52.786;6.892;2023-03-14T00:43:20;11.10;99.90
52669;DHT22;59898;52.786;6.892;2023-03-14T00:46:44;10.80;99.90
52669;DHT22;59898;52.786;6.892;2023-03-14T00:50:05;10.80;99.90
52669;DHT22;59898;52.786;6.892;2023-03-14T00:53:26;10.70;99.90
52669;DHT22;59898;52.786;6.892;2023-03-14T00:56:46;10.70;99.90
52669;DHT22;59898;52.786;6.892;2023-03-14T01:00:08;10.70;99.90
52669;DHT22;59898;52.786;6.892;2023-03-14T01:03:31;10.70;99.90
52669;DHT22;59898;52.786;6.892;2023-03-14T01:06:52;10.70;99.90
52669;DHT22;59898;52.786;6.892;2023-03-14T01:10:13;10.60;99.90
52669;DHT22;59898;52.786;6.892;2023-03-14T01:13:34;10.60;99.90
52669;DHT22;59898;52.786;6.892;2023-03-14T01:16:55;10.50;99.90
52669;DHT22;59898;52.786;6.892;2023-03-14T01:20:21;10.40;99.90
52669;DHT22;59898;52.786;6.892;2023-03-14T01:23:42;10.30;99.90
52669;DHT22;59898;52.786;6.892;2023-03-14T01:27:03;10.20;99.90
52669;DHT22;59898;52.786;6.892;2023-03-14T01:30:24;10.20;99.90
52669;DHT22;59898;52.786;6.892;2023-03-14T01:33:45;10.10;99.90
52669;DHT22;59898;52.786;6.892;2023-03-14T01:37:06;10.10;99.90
52669;DHT22;59898;52.786;6.892;2023-03-14T01:40:28;10.00;99.90
52669;DHT22;59898;52.786;6.892;2023-03-14T01:43:49;10.00;99.90
52669;DHT22;59898;52.786;6.892;2023-03-14T01:47:10;10.00;99.90
52669;DHT22;59898;52.786;6.892;2023-03-14T01:50:31;10.00;99.90
52669;DHT22;59898;52.786;6.892;2023-03-14T01:53:53;10.10;99.90
52669;DHT22;59898;52.786;6.892;2023-03-14T01:57:20;10.10;99.90
52669;DHT22;59898;52.786;6.892;2023-03-14T02:00:41;10.10;99.90
52669;DHT22;59898;52.786;6.892;2023-03-14T02:04:03;10.10;99.90
52669;DHT22;59898;52.786;6.892;2023-03-14T02:07:33;10.10;99.90
52669;DHT22;59898;52.786;6.892;2023-03-14T02:10:55;10.10;99.90
52669;DHT22;59898;52.786;6.892;2023-03-14T02:14:27;10.10;99.90
52669;DHT22;59898;52.786;6.892;2023-03-14T02:17:49;10.10;99.90
52669;DHT22;59898;52.786;6.892;2023-03-14T02:21:44;10.00;99.90
52669;DHT22;59898;52.786;6.892;2023-03-14T02:28:46;10.10;99.90
52669;DHT22;59898;52.786;6.892;2023-03-14T02:32:09;10.10;99.90
52669;DHT22;59898;52.786;6.892;2023-03-14T02:35:53;10.10;99.90
52669;DHT22;59898;52.786;6.892;2023-03-14T02:39:24;10.10;99.90
52669;DHT22;59898;52.786;6.892;2023-03-14T02:42:47;10.10;99.90
52669;DHT22;59898;52.786;6.892;2023-03-14T02:46:12;10.20;99.90
52669;DHT22;59898;52.786;6.892;2023-03-14T02:49:33;10.20;99.90
52669;DHT22;59898;52.786;6.892;2023-03-14T02:52:54;10.20;99.90
52669;DHT22;59898;52.786;6.892;2023-03-14T02:56:15;10.20;99.90
52669;DHT22;59898;52.786;6.892;2023-03-14T02:59:36;10.20;99.90
52669;DHT22;59898;52.786;6.892;2023-03-14T03:02:57;10.20;99.90
52669;DHT22;59898;52.786;6.892;2023-03-14T03:06:17;10.20;99.90
52669;DHT22;59898;52.786;6.892;2023-03-14T03:09:38;10.20;99.90
52669;DHT22;59898;52.786;6.892;2023-03-14T03:12:59;10.20;99.90
52669;DHT22;59898;52.786;6.892;2023-03-14T03:16:19;10.20;99.90
52669;DHT22;59898;52.786;6.892;2023-03-14T03:19:40;10.10;99.90
52669;DHT22;59898;52.786;6.892;2023-03-14T03:23:01;10.10;99.90
52669;DHT22;59898;52.786;6.892;2023-03-14T03:26:22;10.00;99.90
52669;DHT22;59898;52.786;6.892;2023-03-14T03:29:42;10.00;99.90
52669;DHT22;59898;52.786;6.892;2023-03-14T03:33:03;10.00;99.90
52669;DHT22;59898;52.786;6.892;2023-03-14T03:36:25;9.90;99.90
52669;DHT22;59898;52.786;6.892;2023-03-14T03:39:46;9.90;99.90
52669;DHT22;59898;52.786;6.892;2023-03-14T03:43:06;9.80;99.90
52669;DHT22;59898;52.786;6.892;2023-03-14T03:46:27;9.80;99.90
52669;DHT22;59898;52.786;6.892;2023-03-14T03:49:48;9.80;99.90
52669;DHT22;59898;52.786;6.892;2023-03-14T03:53:08;9.80;99.90
52669;DHT22;59898;52.786;6.892;2023-03-14T03:56:29;9.80;99.90
52669;DHT22;59898;52.786;6.892;2023-03-14T03:59:51;9.70;99.90
52669;DHT22;59898;52.786;6.892;2023-03-14T04:03:12;9.70;99.90
52669;DHT22;59898;52.786;6.892;2023-03-14T04:06:33;9.70;99.90
52669;DHT22;59898;52.786;6.892;2023-03-14T04:09:53;9.70;99.90
52669;DHT22;59898;52.786;6.892;2023-03-14T04:13:14;9.60;99.90
52669;DHT22;59898;52.786;6.892;2023-03-14T04:16:35;9.70;99.90
52669;DHT22;59898;52.786;6.892;2023-03-14T04:19:56;9.60;99.90
52669;DHT22;59898;52.786;6.892;2023-03-14T04:23:16;9.60;99.90
52669;DHT22;59898;52.786;6.892;2023-03-14T04:26:37;9.60;99.90
52669;DHT22;59898;52.786;6.892;2023-03-14T04:29:58;9.50;99.90
52669;DHT22;59898;52.786;6.892;2023-03-14T04:33:19;9.50;99.90
52669;DHT22;59898;52.786;6.892;2023-03-14T04:36:39;9.60;99.90
52669;DHT22;59898;52.786;6.892;2023-03-14T04:40:00;9.50;99.90
52669;DHT22;59898;52.786;6.892;2023-03-14T04:43:21;9.50;99.90
52669;DHT22;59898;52.786;6.892;2023-03-14T04:46:41;9.50;99.90
52669;DHT22;59898;52.786;6.892;2023-03-14T04:50:02;9.50;99.90
52669;DHT22;59898;52.786;6.892;2023-03-14T04:53:23;9.50;99.90
52669;DHT22;59898;52.786;6.892;2023-03-14T04:56:44;9.50;99.90
52669;DHT22;59898;52.786;6.892;2023-03-14T05:00:05;9.50;99.90
52669;DHT22;59898;52.786;6.892;2023-03-14T05:03:30;9.50;99.90
52669;DHT22;59898;52.786;6.892;2023-03-14T05:06:51;9.50;99.90
52669;DHT22;59898;52.786;6.892;2023-03-14T05:10:11;9.50;99.90
52669;DHT22;59898;52.786;6.892;2023-03-14T05:13:32;9.50;99.90
52669;DHT22;59898;52.786;6.892;2023-03-14T05:16:53;9.50;99.90
52669;DHT22;59898;52.786;6.892;2023-03-14T05:20:13;9.50;99.90
52669;DHT22;59898;52.786;6.892;2023-03-14T05:23:34;9.50;99.90
52669;DHT22;59898;52.786;6.892;2023-03-14T05:26:55;9.50;99.90
52669;DHT22;59898;52.786;6.892;2023-03-14T05:30:15;9.50;99.90
52669;DHT22;59898;52.786;6.892;2023-03-14T05:33:36;9.40;99.90
52669;DHT22;59898;52.786;6.892;2023-03-14T05:36:57;9.40;99.90
52669;DHT22;59898;52.786;6.892;2023-03-14T05:40:18;9.40;99.90
52669;DHT22;59898;52.786;6.892;2023-03-14T05:43:38;9.40;99.90
52669;DHT22;59898;52.786;6.892;2023-03-14T05:46:59;9.40;99.90
52669;DHT22;59898;52.786;6.892;2023-03-14T05:50:20;9.40;99.90
52669;DHT22;59898;52.786;6.892;2023-03-14T05:53:41;9.40;99.90
52669;DHT22;59898;52.786;6.892;2023-03-14T05:57:01;9.40;99.90
52669;DHT22;59898;52.786;6.892;2023-03-14T06:00:22;9.40;99.90
52669;DHT22;59898;52.786;6.892;2023-03-14T06:03:43;9.40;99.90
52669;DHT22;59898;52.786;6.892;2023-03-14T06:07:04;9.40;99.90
52669;DHT22;59898;52.786;6.892;2023-03-14T06:10:24;9.40;99.90
52669;DHT22;59898;52.786;6.892;2023-03-14T06:13:45;9.40;99.90
52669;DHT22;59898;52.786;6.892;2023-03-14T06:17:06;9.40;99.90
52669;DHT22;59898;52.786;6.892;2023-03-14T06:20:27;9.40;99.90
52669;DHT22;59898;52.786;6.892;2023-03-14T06:23:48;9.40;99.90
52669;DHT22;59898;52.786;6.892;2023-03-14T06:27:08;9.40;99.90
52669;DHT22;59898;52.786;6.892;2023-03-14T06:30:29;9.40;99.90
52669;DHT22;59898;52.786;6.892;2023-03-14T06:33:49;9.40;99.90
52669;DHT22;59898;52.786;6.892;2023-03-14T06:37:10;9.40;99.90
52669;DHT22;59898;52.786;6.892;2023-03-14T06:40:31;9.40;99.90
52669;DHT22;59898;52.786;6.892;2023-03-14T06:43:52;9.40;99.90
52669;DHT22;59898;52.786;6.892;2023-03-14T06:47:12;9.40;99.90
52669;DHT22;59898;52.786;6.892;2023-03-14T06:50:33;9.40;99.90
52669;DHT22;59898;52.786;6.892;2023-03-14T06:53:54;9.40;99.90
52669;DHT22;59898;52.786;6.892;2023-03-14T06:57:14;9.40;99.90
52669;DHT22;59898;52.786;6.892;2023-03-14T07:00:35;9.50;99.90
52669;DHT22;59898;52.786;6.892;2023-03-14T07:03:56;9.40;99.90
52669;DHT22;59898;52.786;6.892;2023-03-14T07:07:16;9.40;99.90
52669;DHT22;59898;52.786;6.892;2023-03-14T07:10:37;9.40;99.90
52669;DHT22;59898;52.786;6.892;2023-03-14T07:13:58;9.40;99.90
52669;DHT22;59898;52.786;6.892;2023-03-14T07:17:19;9.50;99.90
52669;DHT22;59898;52.786;6.892;2023-03-14T07:20:39;9.50;99.90
52669;DHT22;59898;52.786;6.892;2023-03-14T07:24:00;9.50;99.90
52669;DHT22;59898;52.786;6.892;2023-03-14T07:27:21;9.50;99.90
52669;DHT22;59898;52.786;6.892;2023-03-14T07:30:42;9.50;99.90
52669;DHT22;59898;52.786;6.892;2023-03-14T07:34:02;9.50;99.90
52669;DHT22;59898;52.786;6.892;2023-03-14T07:37:23;9.50;99.90
52669;DHT22;59898;52.786;6.892;2023-03-14T07:40:44;9.50;99.90
52669;DHT22;59898;52.786;6.892;2023-03-14T07:44:04;9.50;99.90
52669;DHT22;59898;52.786;6.892;2023-03-14T07:47:25;9.40;99.90
52669;DHT22;59898;52.786;6.892;2023-03-14T07:50:49;9.20;99.90
52669;DHT22;59898;52.786;6.892;2023-03-14T07:54:10;9.10;99.90
52669;DHT22;59898;52.786;6.892;2023-03-14T07:57:31;9.00;99.90
52669;DHT22;59898;52.786;6.892;2023-03-14T08:00:52;8.90;99.90
52669;DHT22;59898;52.786;6.892;2023-03-14T08:04:13;8.50;99.90
52669;DHT22;59898;52.786;6.892;2023-03-14T08:07:34;8.30;99.90
52669;DHT22;59898;52.786;6.892;2023-03-14T08:10:54;8.00;99.90
52669;DHT22;59898;52.786;6.892;2023-03-14T08:14:15;7.80;99.90
52669;DHT22;59898;52.786;6.892;2023-03-14T08:17:36;7.60;99.90
52669;DHT22;59898;52.786;6.892;2023-03-14T08:20:56;7.40;99.90
52669;DHT22;59898;52.786;6.892;2023-03-14T08:24:18;7.20;99.90
52669;DHT22;59898;52.786;6.892;2023-03-14T08:27:39;7.00;99.90
52669;DHT22;59898;52.786;6.892;2023-03-14T08:31:00;6.80;99.90
52669;DHT22;59898;52.786;6.892;2023-03-14T08:34:21;6.80;99.90
52669;DHT22;59898;52.786;6.892;2023-03-14T08:37:42;6.70;99.90
52669;DHT22;59898;52.786;6.892;2023-03-14T08:41:03;6.60;99.90
52669;DHT22;59898;52.786;6.892;2023-03-14T08:44:24;6.50;99.90
52669;DHT22;59898;52.786;6.892;2023-03-14T08:47:45;6.50;99.90
52669;DHT22;59898;52.786;6.892;2023-03-14T08:51:13;6.30;99.90
52669;DHT22;59898;52.786;6.892;2023-03-14T08:54:34;6.30;99.90
52669;DHT22;59898;52.786;6.892;2023-03-14T08:57:55;6.30;99.90
52669;DHT22;59898;52.786;6.892;2023-03-14T09:01:16;6.30;99.90
52669;DHT22;59898;52.786;6.892;2023-03-14T09:04:37;6.40;99.90
52669;DHT22;59898;52.786;6.892;2023-03-14T09:07:57;6.20;99.90
52669;DHT22;59898;52.786;6.892;2023-03-14T09:11:19;6.20;99.90
52669;DHT22;59898;52.786;6.892;2023-03-14T09:14:40;6.20;99.90
52669;DHT22;59898;52.786;6.892;2023-03-14T09:18:01;6.20;99.90
52669;DHT22;59898;52.786;6.892;2023-03-14T09:21:22;6.20;99.90
52669;DHT22;59898;52.786;6.892;2023-03-14T09:24:42;6.20;99.90
52669;DHT22;59898;52.786;6.892;2023-03-14T09:28:04;6.20;99.90
52669;DHT22;59898;52.786;6.892;2023-03-14T09:31:24;6.20;99.90
52669;DHT22;59898;52.786;6.892;2023-03-14T09:34:45;6.20;99.90
52669;DHT22;59898;52.786;6.892;2023-03-14T09:38:06;6.30;99.90
52669;DHT22;59898;52.786;6.892;2023-03-14T09:41:33;6.30;99.90
52669;DHT22;59898;52.786;6.892;2023-03-14T09:44:59;6.40;99.90
52669;DHT22;59898;52.786;6.892;2023-03-14T09:48:23;6.40;99.90
52669;DHT22;59898;52.786;6.892;2023-03-14T09:51:49;6.60;99.90
52669;DHT22;59898;52.786;6.892;2023-03-14T09:55:19;6.70;99.90
52669;DHT22;59898;52.786;6.892;2023-03-14T09:58:45;6.80;99.90
52669;DHT22;59898;52.786;6.892;2023-03-14T10:02:21;6.90;99.90
52669;DHT22;59898;52.786;6.892;2023-03-14T10:05:42;7.10;99.90
52669;DHT22;59898;52.786;6.892;2023-03-14T10:09:03;7.20;99.90
52669;DHT22;59898;52.786;6.892;2023-03-14T10:12:34;7.30;99.90
52669;DHT22;59898;52.786;6.892;2023-03-14T10:15:59;7.40;99.90
52669;DHT22;59898;52.786;6.892;2023-03-14T10:19:20;7.50;99.90
52669;DHT22;59898;52.786;6.892;2023-03-14T10:22:41;7.60;99.90
52669;DHT22;59898;52.786;6.892;2023-03-14T10:29:30;7.70;99.90
52669;DHT22;59898;52.786;6.892;2023-03-14T10:32:51;7.70;99.90
52669;DHT22;59898;52.786;6.892;2023-03-14T10:36:21;7.60;99.90
52669;DHT22;59898;52.786;6.892;2023-03-14T10:39:48;7.30;99.90
52669;DHT22;59898;52.786;6.892;2023-03-14T10:43:15;7.10;99.90
52669;DHT22;59898;52.786;6.892;2023-03-14T10:46:37;7.00;99.90
52669;DHT22;59898;52.786;6.892;2023-03-14T10:50:27;7.00;99.90
52669;DHT22;59898;52.786;6.892;2023-03-14T10:57:23;7.20;99.90
52669;DHT22;59898;52.786;6.892;2023-03-14T11:00:47;7.20;99.90
52669;DHT22;59898;52.786;6.892;2023-03-14T11:04:31;7.20;99.90
52669;DHT22;59898;52.786;6.892;2023-03-14T11:08:09;7.20;99.90
52669;DHT22;59898;52.786;6.892;2023-03-14T11:11:32;7.20;99.90
52669;DHT22;59898;52.786;6.892;2023-03-14T11:15:25;7.10;99.90
52669;DHT22;59898;52.786;6.892;2023-03-14T11:22:49;7.20;99.90
52669;DHT22;59898;52.786;6.892;2023-03-14T11:26:29;7.20;99.90
52669;DHT22;59898;52.786;6.892;2023-03-14T11:30:05;7.40;99.90
52669;DHT22;59898;52.786;6.892;2023-03-14T11:33:38;7.40;99.90
52669;DHT22;59898;52.786;6.892;2023-03-14T11:37:07;7.40;99.90
52669;DHT22;59898;52.786;6.892;2023-03-14T11:40:33;7.50;99.90
52669;DHT22;59898;52.786;6.892;2023-03-14T11:43:57;7.60;99.90
52669;DHT22;59898;52.786;6.892;2023-03-14T11:47:29;7.70;99.90
52669;DHT22;59898;52.786;6.892;2023-03-14T11:50:55;7.80;99.90
52669;DHT22;59898;52.786;6.892;2023-03-14T11:57:48;7.90;99.90
52669;DHT22;59898;52.786;6.892;2023-03-14T12:01:12;7.40;99.90
52669;DHT22;59898;52.786;6.892;2023-03-14T12:04:43;7.70;99.90
52669;DHT22;59898;52.786;6.892;2023-03-14T12:15:05;8.40;99.90
52669;DHT22;59898;52.786;6.892;2023-03-14T12:18:39;8.40;99.90
52669;DHT22;59898;52.786;6.892;2023-03-14T12:22:06;8.30;99.90
52669;DHT22;59898;52.786;6.892;2023-03-14T12:25:32;8.20;99.90
52669;DHT22;59898;52.786;6.892;2023-03-14T12:32:22;8.60;99.90
52669;DHT22;59898;52.786;6.892;2023-03-14T12:35:49;8.70;99.90
52669;DHT22;59898;52.786;6.892;2023-03-14T12:43:02;9.10;99.90
52669;DHT22;59898;52.786;6.892;2023-03-14T12:46:26;9.10;99.90
52669;DHT22;59898;52.786;6.892;2023-03-14T12:49:49;9.20;99.90
52669;DHT22;59898;52.786;6.892;2023-03-14T12:53:36;9.20;99.90
52669;DHT22;59898;52.786;6.892;2023-03-14T13:01:01;9.30;99.90
52669;DHT22;59898;52.786;6.892;2023-03-14T13:04:31;9.40;99.60
52669;DHT22;59898;52.786;6.892;2023-03-14T13:11:20;9.20;99.90
52669;DHT22;59898;52.786;6.892;2023-03-14T13:14:48;9.10;99.90
52669;DHT22;59898;52.786;6.892;2023-03-14T13:18:18;9.20;99.90
52669;DHT22;59898;52.786;6.892;2023-03-14T13:21:44;9.20;99.90
52669;DHT22;59898;52.786;6.892;2023-03-14T13:25:09;9.40;99.90
52669;DHT22;59898;52.786;6.892;2023-03-14T13:28:31;9.50;99.80
52669;DHT22;59898;52.786;6.892;2023-03-14T13:31:57;9.50;99.90
52669;DHT22;59898;52.786;6.892;2023-03-14T13:35:23;9.40;99.90
52669;DHT22;59898;52.786;6.892;2023-03-14T13:38:45;9.30;99.90
52669;DHT22;59898;52.786;6.892;2023-03-14T13:42:16;9.00;99.70
52669;DHT22;59898;52.786;6.892;2023-03-14T13:45:48;8.80;99.50
52669;DHT22;59898;52.786;6.892;2023-03-14T13:49:11;8.80;99.90
52669;DHT22;59898;52.786;6.892;2023-03-14T13:52:37;9.00;99.70
52669;DHT22;59898;52.786;6.892;2023-03-14T13:56:02;9.20;99.20
52669;DHT22;59898;52.786;6.892;2023-03-14T13:59:24;9.10;98.60
52669;DHT22;59898;52.786;6.892;2023-03-14T14:02:45;8.90;97.80
52669;DHT22;59898;52.786;6.892;2023-03-14T14:06:16;8.80;98.00
52669;DHT22;59898;52.786;6.892;2023-03-14T14:09:46;8.80;98.10
52669;DHT22;59898;52.786;6.892;2023-03-14T14:13:13;8.90;98.20
52669;DHT22;59898;52.786;6.892;2023-03-14T14:16:35;8.90;97.50
52669;DHT22;59898;52.786;6.892;2023-03-14T14:19:56;8.80;97.70
52669;DHT22;59898;52.786;6.892;2023-03-14T14:23:26;8.80;97.80
52669;DHT22;59898;52.786;6.892;2023-03-14T14:27:01;8.70;97.40
52669;DHT22;59898;52.786;6.892;2023-03-14T14:30:27;8.80;96.90
52669;DHT22;59898;52.786;6.892;2023-03-14T14:33:59;8.80;96.90
52669;DHT22;59898;52.786;6.892;2023-03-14T14:37:26;9.00;96.30
52669;DHT22;59898;52.786;6.892;2023-03-14T14:40:54;9.00;96.70
52669;DHT22;59898;52.786;6.892;2023-03-14T14:44:38;9.00;96.40
52669;DHT22;59898;52.786;6.892;2023-03-14T14:51:30;9.00;97.20
52669;DHT22;59898;52.786;6.892;2023-03-14T14:54:54;8.90;97.40
52669;DHT22;59898;52.786;6.892;2023-03-14T14:58:24;8.80;97.60
52669;DHT22;59898;52.786;6.892;2023-03-14T15:01:45;8.70;97.40
52669;DHT22;59898;52.786;6.892;2023-03-14T15:05:22;8.60;97.80
52669;DHT22;59898;52.786;6.892;2023-03-14T15:08:45;8.60;97.90
52669;DHT22;59898;52.786;6.892;2023-03-14T15:12:06;8.50;97.90
52669;DHT22;59898;52.786;6.892;2023-03-14T15:15:27;8.40;97.60
52669;DHT22;59898;52.786;6.892;2023-03-14T15:18:59;8.40;97.50
52669;DHT22;59898;52.786;6.892;2023-03-14T15:22:20;8.40;97.70
52669;DHT22;59898;52.786;6.892;2023-03-14T15:25:41;8.30;98.00
52669;DHT22;59898;52.786;6.892;2023-03-14T15:29:03;8.30;97.60
52669;DHT22;59898;52.786;6.892;2023-03-14T15:32:23;8.20;98.20
52669;DHT22;59898;52.786;6.892;2023-03-14T15:35:44;8.30;98.80
52669;DHT22;59898;52.786;6.892;2023-03-14T15:39:06;8.40;98.70
52669;DHT22;59898;52.786;6.892;2023-03-14T15:42:27;8.30;98.70
52669;DHT22;59898;52.786;6.892;2023-03-14T15:45:47;8.30;98.90
52669;DHT22;59898;52.786;6.892;2023-03-14T15:49:09;8.20;98.80
52669;DHT22;59898;52.786;6.892;2023-03-14T15:52:30;8.20;98.70
52669;DHT22;59898;52.786;6.892;2023-03-14T15:55:50;8.20;98.90
52669;DHT22;59898;52.786;6.892;2023-03-14T15:59:11;8.30;99.10
52669;DHT22;59898;52.786;6.892;2023-03-14T16:02:32;8.30;98.60
52669;DHT22;59898;52.786;6.892;2023-03-14T16:05:52;8.40;97.90
52669;DHT22;59898;52.786;6.892;2023-03-14T16:09:13;8.40;98.00
52669;DHT22;59898;52.786;6.892;2023-03-14T16:12:35;8.40;97.00
52669;DHT22;59898;52.786;6.892;2023-03-14T16:16:04;8.20;96.60
52669;DHT22;59898;52.786;6.892;2023-03-14T16:19:25;8.10;96.90
52669;DHT22;59898;52.786;6.892;2023-03-14T16:22:51;8.00;97.40
52669;DHT22;59898;52.786;6.892;2023-03-14T16:26:14;7.90;98.00
52669;DHT22;59898;52.786;6.892;2023-03-14T16:29:35;7.90;98.40
52669;DHT22;59898;52.786;6.892;2023-03-14T16:32:56;7.80;98.70
52669;DHT22;59898;52.786;6.892;2023-03-14T16:36:21;7.70;99.20
52669;DHT22;59898;52.786;6.892;2023-03-14T16:39:42;7.70;99.80
52669;DHT22;59898;52.786;6.892;2023-03-14T16:43:02;7.60;99.90
52669;DHT22;59898;52.786;6.892;2023-03-14T16:46:24;7.50;99.90
52669;DHT22;59898;52.786;6.892;2023-03-14T16:49:48;7.30;99.90
52669;DHT22;59898;52.786;6.892;2023-03-14T16:53:08;7.30;99.90
52669;DHT22;59898;52.786;6.892;2023-03-14T16:56:29;7.20;99.90
52669;DHT22;59898;52.786;6.892;2023-03-14T16:59:50;7.20;99.90
52669;DHT22;59898;52.786;6.892;2023-03-14T17:03:11;7.10;99.90
52669;DHT22;59898;52.786;6.892;2023-03-14T17:06:31;6.90;99.90
52669;DHT22;59898;52.786;6.892;2023-03-14T17:09:52;6.60;99.90
52669;DHT22;59898;52.786;6.892;2023-03-14T17:13:14;6.50;99.90
52669;DHT22;59898;52.786;6.892;2023-03-14T17:16:35;6.40;99.90
52669;DHT22;59898;52.786;6.892;2023-03-14T17:19:55;6.30;99.90
52669;DHT22;59898;52.786;6.892;2023-03-14T17:23:16;6.20;99.90
52669;DHT22;59898;52.786;6.892;2023-03-14T17:26:37;6.00;99.90
52669;DHT22;59898;52.786;6.892;2023-03-14T17:29:57;6.00;99.90
52669;DHT22;59898;52.786;6.892;2023-03-14T17:33:18;6.00;99.90
52669;DHT22;59898;52.786;6.892;2023-03-14T17:36:39;6.00;99.90
52669;DHT22;59898;52.786;6.892;2023-03-14T17:40:00;6.00;99.90
52669;DHT22;59898;52.786;6.892;2023-03-14T17:43:23;6.00;99.90
52669;DHT22;59898;52.786;6.892;2023-03-14T17:46:44;6.10;99.90
52669;DHT22;59898;52.786;6.892;2023-03-14T17:50:05;6.00;99.90
52669;DHT22;59898;52.786;6.892;2023-03-14T17:53:26;5.90;99.90
52669;DHT22;59898;52.786;6.892;2023-03-14T17:56:46;5.90;99.90
52669;DHT22;59898;52.786;6.892;2023-03-14T18:00:09;5.90;99.90
52669;DHT22;59898;52.786;6.892;2023-03-14T18:03:31;5.80;99.90
52669;DHT22;59898;52.786;6.892;2023-03-14T18:06:51;5.80;99.90
52669;DHT22;59898;52.786;6.892;2023-03-14T18:10:12;5.80;99.90
52669;DHT22;59898;52.786;6.892;2023-03-14T18:13:33;5.90;99.90
52669;DHT22;59898;52.786;6.892;2023-03-14T18:16:54;6.10;99.90
52669;DHT22;59898;52.786;6.892;2023-03-14T18:20:15;5.70;99.90
52669;DHT22;59898;52.786;6.892;2023-03-14T18:23:36;5.50;99.90
52669;DHT22;59898;52.786;6.892;2023-03-14T18:26:57;5.40;99.90
52669;DHT22;59898;52.786;6.892;2023-03-14T18:30:18;5.20;99.90
52669;DHT22;59898;52.786;6.892;2023-03-14T18:33:39;5.20;99.90
52669;DHT22;59898;52.786;6.892;2023-03-14T18:37:01;5.20;99.90
52669;DHT22;59898;52.786;6.892;2023-03-14T18:40:22;5.10;99.90
52669;DHT22;59898;52.786;6.892;2023-03-14T18:43:43;5.10;99.90
52669;DHT22;59898;52.786;6.892;2023-03-14T18:47:04;5.00;99.90
52669;DHT22;59898;52.786;6.892;2023-03-14T18:50:24;5.00;99.90
52669;DHT22;59898;52.786;6.892;2023-03-14T18:53:45;5.00;99.90
52669;DHT22;59898;52.786;6.892;2023-03-14T18:57:06;5.00;99.90
52669;DHT22;59898;52.786;6.892;2023-03-14T19:00:26;5.70;99.90
52669;DHT22;59898;52.786;6.892;2023-03-14T19:03:47;4.90;99.90
52669;DHT22;59898;52.786;6.892;2023-03-14T19:07:08;4.90;99.90
52669;DHT22;59898;52.786;6.892;2023-03-14T19:10:29;4.90;99.90
52669;DHT22;59898;52.786;6.892;2023-03-14T19:13:52;4.80;99.90
52669;DHT22;59898;52.786;6.892;2023-03-14T19:17:14;4.80;99.90
52669;DHT22;59898;52.786;6.892;2023-03-14T19:20:38;4.70;99.90
52669;DHT22;59898;52.786;6.892;2023-03-14T19:24:00;4.70;99.90
52669;DHT22;59898;52.786;6.892;2023-03-14T19:27:21;4.70;99.90
52669;DHT22;59898;52.786;6.892;2023-03-14T19:30:42;4.70;99.90
52669;DHT22;59898;52.786;6.892;2023-03-14T19:34:03;4.70;99.90
52669;DHT22;59898;52.786;6.892;2023-03-14T19:37:23;4.70;99.90
52669;DHT22;59898;52.786;6.892;2023-03-14T19:40:45;4.70;99.90
52669;DHT22;59898;52.786;6.892;2023-03-14T19:44:06;4.80;99.90
52669;DHT22;59898;52.786;6.892;2023-03-14T19:47:28;4.70;99.90
52669;DHT22;59898;52.786;6.892;2023-03-14T19:50:48;4.80;99.90
52669;DHT22;59898;52.786;6.892;2023-03-14T19:54:09;4.70;99.90
52669;DHT22;59898;52.786;6.892;2023-03-14T19:57:30;4.70;99.90
52669;DHT22;59898;52.786;6.892;2023-03-14T20:00:51;4.70;99.90
52669;DHT22;59898;52.786;6.892;2023-03-14T20:04:12;4.70;99.90
52669;DHT22;59898;52.786;6.892;2023-03-14T20:07:34;4.60;99.90
52669;DHT22;59898;52.786;6.892;2023-03-14T20:10:54;4.60;99.90
52669;DHT22;59898;52.786;6.892;2023-03-14T20:14:15;4.50;99.90
52669;DHT22;59898;52.786;6.892;2023-03-14T20:17:36;4.30;99.90
52669;DHT22;59898;52.786;6.892;2023-03-14T20:20:58;4.20;99.90
52669;DHT22;59898;52.786;6.892;2023-03-14T20:24:19;4.10;99.90
52669;DHT22;59898;52.786;6.892;2023-03-14T20:27:40;4.10;99.90
52669;DHT22;59898;52.786;6.892;2023-03-14T20:31:05;4.20;99.90
52669;DHT22;59898;52.786;6.892;2023-03-14T20:34:25;4.20;99.90
52669;DHT22;59898;52.786;6.892;2023-03-14T20:37:46;4.20;99.90
52669;DHT22;59898;52.786;6.892;2023-03-14T20:41:07;4.20;99.90
52669;DHT22;59898;52.786;6.892;2023-03-14T20:44:30;4.10;99.90
52669;DHT22;59898;52.786;6.892;2023-03-14T20:47:50;4.00;99.90
52669;DHT22;59898;52.786;6.892;2023-03-14T20:51:11;4.00;99.90
52669;DHT22;59898;52.786;6.892;2023-03-14T20:54:33;4.00;99.90
52669;DHT22;59898;52.786;6.892;2023-03-14T20:57:54;4.20;99.90
52669;DHT22;59898;52.786;6.892;2023-03-14T21:01:15;3.80;99.90
52669;DHT22;59898;52.786;6.892;2023-03-14T21:04:35;3.80;99.90
52669;DHT22;59898;52.786;6.892;2023-03-14T21:07:56;3.70;99.90
52669;DHT22;59898;52.786;6.892;2023-03-14T21:11:17;3.60;99.90
52669;DHT22;59898;52.786;6.892;2023-03-14T21:14:37;3.60;99.90
52669;DHT22;59898;52.786;6.892;2023-03-14T21:17:58;3.50;99.90
52669;DHT22;59898;52.786;6.892;2023-03-14T21:21:24;3.70;99.90
52669;DHT22;59898;52.786;6.892;2023-03-14T21:24:45;3.40;99.90
52669;DHT22;59898;52.786;6.892;2023-03-14T21:28:06;3.50;99.90
52669;DHT22;59898;52.786;6.892;2023-03-14T21:31:28;3.40;99.90
52669;DHT22;59898;52.786;6.892;2023-03-14T21:34:49;3.40;99.90
52669;DHT22;59898;52.786;6.892;2023-03-14T21:38:10;3.40;99.90
52669;DHT22;59898;52.786;6.892;2023-03-14T21:41:31;3.60;99.90
52669;DHT22;59898;52.786;6.892;2023-03-14T21:44:52;3.40;99.90
52669;DHT22;59898;52.786;6.892;2023-03-14T21:48:12;3.40;99.90
52669;DHT22;59898;52.786;6.892;2023-03-14T21:51:33;3.40;99.90
52669;DHT22;59898;52.786;6.892;2023-03-14T21:54:55;3.40;99.90
52669;DHT22;59898;52.786;6.892;2023-03-14T21:58:15;3.40;99.90
52669;DHT22;59898;52.786;6.892;2023-03-14T22:01:36;3.60;99.90
52669;DHT22;59898;52.786;6.892;2023-03-14T22:04:57;3.70;99.90
52669;DHT22;59898;52.786;6.892;2023-03-14T22:08:18;3.60;99.90
52669;DHT22;59898;52.786;6.892;2023-03-14T22:11:39;3.60;99.90
52669;DHT22;59898;52.786;6.892;2023-03-14T22:14:59;3.60;99.90
52669;DHT22;59898;52.786;6.892;2023-03-14T22:18:20;3.70;99.90
52669;DHT22;59898;52.786;6.892;2023-03-14T22:21:41;3.60;99.90